| Date | Time | Temp. (oF) | Dew Point (oF) | Rel. Hum. (%) | Press. (in.) | Wind Dir. (deg.) | Wind Speed (mph) | Hourly Rainfall (i n.) |
|
|---|---|---|---|---|---|---|---|---|---|
| 1 | 09/17 | 24:00 | 60 | 53 | 80 | 29.83 | 270 | 6 | 0.00 |
| 2 | 09/16 | 23:00 | 59 | 53 | 82 | 29.78 | 290 | 10 | 0.00 |
| 3 | 09/16 | 22:00 | 58 | 54 | 88 | 29.74 | 340 | 10 | 0.00 |
| 4 | 09/16 | 21:00 | 59 | 55 | 88 | 29.70 | 310 | 7 | 0.00 |
| 5 | 09/16 | 20:00 | 58 | 55 | 91 | 29.64 | 310 | 15 | 0.01 |
| 6 | 09/16 | 19:00 | 59 | 57 | 94 | 29.57 | 320 | 10 | 0.02 |
| 7 | 09/16 | 18:00 | 59 | 57 | 95 | 29.52 | 310 | 10 | 0.03 |
| 8 | 09/16 | 17:00 | 59 | 57 | 96 | 29.49 | 30 | 9 | 0.24 |
| 9 | 09/16 | 16:00 | 61 | 59 | 96 | 29.51 | 10 | 10 | 0.44 |
| 10 | 09/16 | 15:00 | 61 | 59 | 96 | 29.55 | 330 | 7 | 0.79 |
| 11 | 09/16 | 14:00 | 63 | 61 | 96 | 29.62 | 330 | 10 | 0.75 |
| 12 | 09/16 | 13:00 | 63 | 61 | 96 | 29.66 | 280 | 7 | 0.48 |
| 13 | 09/16 | 12:00 | 63 | 61 | 96 | 29.72 | 340 | 7 | 0.29 |
| 14 | 09/16 | 11:00 | 63 | 61 | 96 | 29.80 | 10 | 9 | 0.42 |
| 15 | 09/16 | 10:00 | 63 | 62 | 97 | 29.83 | 300 | 4 | 0.27 |
| 16 | 09/16 | 09:00 | 65 | 64 | 97 | 29.86 | 30 | 4 | 0.39 |
| 17 | 09/16 | 08:00 | 67 | 65 | 96 | 29.89 | 50 | 2 | 0.35 |
| 18 | 09/16 | 07:00 | 66 | 64 | 96 | 29.92 | 40 | 1 | 0.21 |
| 19 | 09/16 | 06:00 | 67 | 65 | 95 | 29.92 | 340 | 2 | 0.24 |
| 20 | 09/16 | 05:00 | 69 | 66 | 92 | 29.99 | 30 | 0 | 0.08 |
| 21 | 09/16 | 04:00 | 69 | 65 | 88 | 30.01 | 50 | 4 | 0.05 |
| 22 | 09/16 | 03:00 | 69 | 65 | 88 | 30.04 | 10 | 2 | 0.04 |
| 23 | 09/16 | 02:00 | 69 | 65 | 88 | 30.07 | 30 | 2 | 0.02 |
| 24 | 09/16 | 01:00 | 68 | 65 | 91 | 30.10 | 10 | 2 | 0.02 |